Milford, Kentucky
Current Conditions -  °F | °C
As of 6:55 AM on Sunday 23 Nov 2014 (Local Time) from KFGX Reporting Station
Broken Clouds Broken Clouds  
Wind Chill: 44°   Ceiling: 11000
Heat Index: 48°   Visibility: 10mi
Dew Point: 36°   Wind: 8mph
Humidity: 64%   Direction: 150°SSE
Pressure: 30.03"   Gusts: NA
Location:  38.58°N, 84.16°W
Report Text: KFGX 231155Z AUTO 15007KT 10SM SCT037 BKN110 09/02 A3003 RMK AO2 T00870023 10102 20078
Loading
Personal Weather Stations






























Interactive Weather Map New forecast layout! Learn more

10-Day Weather Forecast

Advertisements
Track Severe Weather on mobile